createdAt,value
2023-04-27T07:10:54.056Z,221.20
2023-04-27T07:15:04.425Z,220.35
2023-04-27T07:19:07.458Z,217.20
2023-04-27T07:23:10.800Z,220.20
2023-04-27T07:27:15.199Z,215.10
2023-04-27T07:31:21.488Z,217.37
2023-04-27T07:35:24.667Z,221.60
2023-04-27T21:38:48.981Z,217.15
2023-04-27T21:42:53.424Z,204.23
2023-04-27T21:46:56.422Z,198.20
2023-04-27T21:51:01.493Z,198.35
2023-04-27T21:55:06.571Z,197.10
2023-04-27T21:59:09.664Z,196.70
2023-04-27T22:03:12.968Z,196.30
2023-04-27T22:07:16.092Z,196.80
2023-04-27T22:11:21.246Z,196.07
2023-04-27T22:15:24.426Z,196.50
2023-04-27T22:19:27.675Z,196.10
2023-04-27T22:23:31.983Z,196.45
2023-04-27T22:27:44.458Z,196.43
2023-04-27T22:31:48.553Z,195.95
2023-04-27T22:35:51.563Z,187.93
2023-04-27T22:39:54.552Z,187.60
2023-04-27T22:43:58.897Z,194.35
2023-04-27T22:48:03.922Z,194.33
2023-04-27T22:52:08.012Z,194.20
2023-04-27T22:56:11.111Z,194.60
2023-04-27T23:00:16.226Z,192.70
2023-04-27T23:04:20.537Z,194.73
2023-04-27T23:08:25.011Z,194.60
2023-04-27T23:12:28.207Z,195.37
2023-04-27T23:16:32.590Z,194.75
2023-04-27T23:20:35.564Z,193.90
2023-04-27T23:24:38.522Z,196.07
2023-04-27T23:28:41.928Z,195.00
2023-04-27T23:32:46.375Z,192.67
2023-04-27T23:36:49.397Z,194.30
2023-04-27T23:40:52.618Z,194.13
2023-04-27T23:44:55.648Z,194.00
2023-04-27T23:48:59.967Z,193.55
2023-04-27T23:53:03.408Z,191.35
2023-04-27T23:57:06.638Z,182.75
